sensor_id;sensor_type;location;lat;lon;timestamp;temperature;humidity
14670;DHT22;7423;48.722;9.350;2022-11-20T00:01:24;10.60;99.90
14670;DHT22;7423;48.722;9.350;2022-11-20T00:03:54;10.60;99.90
14670;DHT22;7423;48.722;9.350;2022-11-20T00:06:23;10.70;99.90
14670;DHT22;7423;48.722;9.350;2022-11-20T00:08:50;10.70;99.90
14670;DHT22;7423;48.722;9.350;2022-11-20T00:11:20;10.70;99.90
14670;DHT22;7423;48.722;9.350;2022-11-20T00:13:51;10.60;99.90
14670;DHT22;7423;48.722;9.350;2022-11-20T00:16:22;10.60;99.90
14670;DHT22;7423;48.722;9.350;2022-11-20T00:18:51;10.60;99.90
14670;DHT22;7423;48.722;9.350;2022-11-20T00:21:28;10.60;99.90
14670;DHT22;7423;48.722;9.350;2022-11-20T00:23:56;10.50;99.90
14670;DHT22;7423;48.722;9.350;2022-11-20T00:26:25;10.50;99.90
14670;DHT22;7423;48.722;9.350;2022-11-20T00:28:54;10.50;99.90
14670;DHT22;7423;48.722;9.350;2022-11-20T00:31:23;10.50;99.90
14670;DHT22;7423;48.722;9.350;2022-11-20T00:33:50;10.40;99.90
14670;DHT22;7423;48.722;9.350;2022-11-20T00:36:22;10.50;99.90
14670;DHT22;7423;48.722;9.350;2022-11-20T00:38:54;10.40;99.90
14670;DHT22;7423;48.722;9.350;2022-11-20T00:41:25;10.40;99.90
14670;DHT22;7423;48.722;9.350;2022-11-20T00:43:54;10.40;99.90
14670;DHT22;7423;48.722;9.350;2022-11-20T00:46:24;10.40;99.90
14670;DHT22;7423;48.722;9.350;2022-11-20T00:48:52;10.40;99.90
14670;DHT22;7423;48.722;9.350;2022-11-20T00:51:21;10.40;99.90
14670;DHT22;7423;48.722;9.350;2022-11-20T00:53:50;10.40;99.90
14670;DHT22;7423;48.722;9.350;2022-11-20T00:56:18;10.50;99.90
14670;DHT22;7423;48.722;9.350;2022-11-20T00:58:47;10.40;99.90
14670;DHT22;7423;48.722;9.350;2022-11-20T01:01:20;10.40;99.90
14670;DHT22;7423;48.722;9.350;2022-11-20T01:03:53;10.40;99.90
14670;DHT22;7423;48.722;9.350;2022-11-20T01:06:36;10.40;99.90
14670;DHT22;7423;48.722;9.350;2022-11-20T01:09:06;10.40;99.90
14670;DHT22;7423;48.722;9.350;2022-11-20T01:11:37;10.40;99.90
14670;DHT22;7423;48.722;9.350;2022-11-20T01:14:07;10.40;99.90
14670;DHT22;7423;48.722;9.350;2022-11-20T01:16:43;10.40;99.90
14670;DHT22;7423;48.722;9.350;2022-11-20T01:19:17;10.40;99.90
14670;DHT22;7423;48.722;9.350;2022-11-20T01:21:49;10.40;99.90
14670;DHT22;7423;48.722;9.350;2022-11-20T01:24:19;10.40;99.90
14670;DHT22;7423;48.722;9.350;2022-11-20T01:26:48;10.30;99.90
14670;DHT22;7423;48.722;9.350;2022-11-20T01:29:19;10.30;99.90
14670;DHT22;7423;48.722;9.350;2022-11-20T01:31:48;10.30;99.90
14670;DHT22;7423;48.722;9.350;2022-11-20T01:34:17;10.20;99.90
14670;DHT22;7423;48.722;9.350;2022-11-20T01:36:46;10.20;99.90
14670;DHT22;7423;48.722;9.350;2022-11-20T01:39:24;10.30;99.90
14670;DHT22;7423;48.722;9.350;2022-11-20T01:41:53;10.20;99.90
14670;DHT22;7423;48.722;9.350;2022-11-20T01:47:43;10.20;99.90
14670;DHT22;7423;48.722;9.350;2022-11-20T01:50:22;10.20;99.90
14670;DHT22;7423;48.722;9.350;2022-11-20T01:53:01;10.20;99.90
14670;DHT22;7423;48.722;9.350;2022-11-20T01:55:41;10.20;99.90
14670;DHT22;7423;48.722;9.350;2022-11-20T01:58:12;10.20;99.90
14670;DHT22;7423;48.722;9.350;2022-11-20T02:00:40;10.20;99.90
14670;DHT22;7423;48.722;9.350;2022-11-20T02:03:10;10.30;99.90
14670;DHT22;7423;48.722;9.350;2022-11-20T02:05:42;10.30;99.90
14670;DHT22;7423;48.722;9.350;2022-11-20T02:08:12;10.30;99.90
14670;DHT22;7423;48.722;9.350;2022-11-20T02:10:40;10.30;99.90
14670;DHT22;7423;48.722;9.350;2022-11-20T02:13:07;10.30;99.90
14670;DHT22;7423;48.722;9.350;2022-11-20T02:15:53;10.40;99.90
14670;DHT22;7423;48.722;9.350;2022-11-20T02:18:21;10.20;99.90
14670;DHT22;7423;48.722;9.350;2022-11-20T02:20:52;10.30;99.90
14670;DHT22;7423;48.722;9.350;2022-11-20T02:23:32;10.30;99.90
14670;DHT22;7423;48.722;9.350;2022-11-20T02:26:07;10.30;99.90
14670;DHT22;7423;48.722;9.350;2022-11-20T02:28:35;10.40;99.90
14670;DHT22;7423;48.722;9.350;2022-11-20T02:31:03;10.30;99.90
14670;DHT22;7423;48.722;9.350;2022-11-20T02:33:30;10.30;99.90
14670;DHT22;7423;48.722;9.350;2022-11-20T02:35:57;10.30;99.90
14670;DHT22;7423;48.722;9.350;2022-11-20T02:38:24;10.30;99.90
14670;DHT22;7423;48.722;9.350;2022-11-20T02:40:50;10.20;99.90
14670;DHT22;7423;48.722;9.350;2022-11-20T02:43:22;10.20;99.90
14670;DHT22;7423;48.722;9.350;2022-11-20T02:45:49;10.20;99.90
14670;DHT22;7423;48.722;9.350;2022-11-20T02:48:15;10.10;99.90
14670;DHT22;7423;48.722;9.350;2022-11-20T02:50:42;10.10;99.90
14670;DHT22;7423;48.722;9.350;2022-11-20T02:53:09;10.10;99.90
14670;DHT22;7423;48.722;9.350;2022-11-20T02:55:36;10.10;99.90
14670;DHT22;7423;48.722;9.350;2022-11-20T02:58:03;10.10;99.90
14670;DHT22;7423;48.722;9.350;2022-11-20T03:00:30;10.00;99.90
14670;DHT22;7423;48.722;9.350;2022-11-20T03:02:57;10.10;99.90
14670;DHT22;7423;48.722;9.350;2022-11-20T03:05:23;10.00;99.90
14670;DHT22;7423;48.722;9.350;2022-11-20T03:07:50;10.10;99.90
14670;DHT22;7423;48.722;9.350;2022-11-20T03:10:17;10.00;99.90
14670;DHT22;7423;48.722;9.350;2022-11-20T03:12:44;10.00;99.90
14670;DHT22;7423;48.722;9.350;2022-11-20T03:15:11;10.00;99.90
14670;DHT22;7423;48.722;9.350;2022-11-20T03:17:38;10.00;99.90
14670;DHT22;7423;48.722;9.350;2022-11-20T03:20:06;10.00;99.90
14670;DHT22;7423;48.722;9.350;2022-11-20T03:22:33;9.90;99.90
14670;DHT22;7423;48.722;9.350;2022-11-20T03:25:00;9.90;99.90
14670;DHT22;7423;48.722;9.350;2022-11-20T03:27:27;10.00;99.90
14670;DHT22;7423;48.722;9.350;2022-11-20T03:29:53;9.90;99.90
14670;DHT22;7423;48.722;9.350;2022-11-20T03:32:20;9.90;99.90
14670;DHT22;7423;48.722;9.350;2022-11-20T03:34:47;9.90;99.90
14670;DHT22;7423;48.722;9.350;2022-11-20T03:37:14;9.90;99.90
14670;DHT22;7423;48.722;9.350;2022-11-20T03:39:41;9.90;99.90
14670;DHT22;7423;48.722;9.350;2022-11-20T03:42:08;9.90;99.90
14670;DHT22;7423;48.722;9.350;2022-11-20T03:44:55;9.90;99.90
14670;DHT22;7423;48.722;9.350;2022-11-20T03:47:22;9.90;99.90
14670;DHT22;7423;48.722;9.350;2022-11-20T03:49:49;10.00;99.90
14670;DHT22;7423;48.722;9.350;2022-11-20T03:52:16;10.00;99.90
14670;DHT22;7423;48.722;9.350;2022-11-20T03:54:43;10.00;99.90
14670;DHT22;7423;48.722;9.350;2022-11-20T03:57:09;9.90;99.90
14670;DHT22;7423;48.722;9.350;2022-11-20T03:59:36;9.90;99.90
14670;DHT22;7423;48.722;9.350;2022-11-20T04:02:03;9.90;99.90
14670;DHT22;7423;48.722;9.350;2022-11-20T04:04:30;10.00;99.90
14670;DHT22;7423;48.722;9.350;2022-11-20T04:06:57;10.00;99.90
14670;DHT22;7423;48.722;9.350;2022-11-20T04:09:24;10.00;99.90
14670;DHT22;7423;48.722;9.350;2022-11-20T04:11:50;10.00;99.90
14670;DHT22;7423;48.722;9.350;2022-11-20T04:14:17;10.00;99.90
14670;DHT22;7423;48.722;9.350;2022-11-20T04:16:44;10.00;99.90
14670;DHT22;7423;48.722;9.350;2022-11-20T04:19:13;10.00;99.90
14670;DHT22;7423;48.722;9.350;2022-11-20T04:21:41;10.00;99.90
14670;DHT22;7423;48.722;9.350;2022-11-20T04:24:09;10.00;99.90
14670;DHT22;7423;48.722;9.350;2022-11-20T04:26:39;10.00;99.90
14670;DHT22;7423;48.722;9.350;2022-11-20T04:29:09;9.90;99.90
14670;DHT22;7423;48.722;9.350;2022-11-20T04:31:37;9.90;99.90
14670;DHT22;7423;48.722;9.350;2022-11-20T04:34:05;9.90;99.90
14670;DHT22;7423;48.722;9.350;2022-11-20T04:36:33;10.00;99.90
14670;DHT22;7423;48.722;9.350;2022-11-20T04:39:03;10.00;99.90
14670;DHT22;7423;48.722;9.350;2022-11-20T04:41:36;10.00;99.90
14670;DHT22;7423;48.722;9.350;2022-11-20T04:44:04;10.00;99.90
14670;DHT22;7423;48.722;9.350;2022-11-20T04:46:37;10.00;99.90
14670;DHT22;7423;48.722;9.350;2022-11-20T04:49:06;10.00;99.90
14670;DHT22;7423;48.722;9.350;2022-11-20T04:51:34;9.90;99.90
14670;DHT22;7423;48.722;9.350;2022-11-20T04:54:01;9.90;99.90
14670;DHT22;7423;48.722;9.350;2022-11-20T04:56:28;9.90;99.90
14670;DHT22;7423;48.722;9.350;2022-11-20T04:58:55;10.00;99.90
14670;DHT22;7423;48.722;9.350;2022-11-20T05:01:23;10.00;99.90
14670;DHT22;7423;48.722;9.350;2022-11-20T05:03:51;10.00;99.90
14670;DHT22;7423;48.722;9.350;2022-11-20T05:06:21;10.00;99.90
14670;DHT22;7423;48.722;9.350;2022-11-20T05:08:48;10.00;99.90
14670;DHT22;7423;48.722;9.350;2022-11-20T05:11:18;10.00;99.90
14670;DHT22;7423;48.722;9.350;2022-11-20T05:13:47;10.00;99.90
14670;DHT22;7423;48.722;9.350;2022-11-20T05:16:17;10.00;99.90
14670;DHT22;7423;48.722;9.350;2022-11-20T05:18:46;10.00;99.90
14670;DHT22;7423;48.722;9.350;2022-11-20T05:21:13;10.00;99.90
14670;DHT22;7423;48.722;9.350;2022-11-20T05:23:42;10.00;99.90
14670;DHT22;7423;48.722;9.350;2022-11-20T05:26:14;10.00;99.90
14670;DHT22;7423;48.722;9.350;2022-11-20T05:28:43;10.00;99.90
14670;DHT22;7423;48.722;9.350;2022-11-20T05:31:16;10.00;99.90
14670;DHT22;7423;48.722;9.350;2022-11-20T05:33:52;10.00;99.90
14670;DHT22;7423;48.722;9.350;2022-11-20T05:36:19;10.00;99.90
14670;DHT22;7423;48.722;9.350;2022-11-20T05:38:46;10.00;99.90
14670;DHT22;7423;48.722;9.350;2022-11-20T05:41:18;9.90;99.90
14670;DHT22;7423;48.722;9.350;2022-11-20T05:43:47;9.90;99.90
14670;DHT22;7423;48.722;9.350;2022-11-20T05:46:16;9.90;99.90
14670;DHT22;7423;48.722;9.350;2022-11-20T05:48:50;9.90;99.90
14670;DHT22;7423;48.722;9.350;2022-11-20T05:51:19;10.00;99.90
14670;DHT22;7423;48.722;9.350;2022-11-20T05:53:46;10.00;99.90
14670;DHT22;7423;48.722;9.350;2022-11-20T05:56:19;9.50;99.90
14670;DHT22;7423;48.722;9.350;2022-11-20T05:58:47;10.00;99.90
14670;DHT22;7423;48.722;9.350;2022-11-20T06:01:20;9.90;99.90
14670;DHT22;7423;48.722;9.350;2022-11-20T06:03:49;10.00;99.90
14670;DHT22;7423;48.722;9.350;2022-11-20T06:06:18;10.00;99.90
14670;DHT22;7423;48.722;9.350;2022-11-20T06:08:45;10.00;99.90
14670;DHT22;7423;48.722;9.350;2022-11-20T06:11:13;10.00;99.90
14670;DHT22;7423;48.722;9.350;2022-11-20T06:13:41;10.10;99.90
14670;DHT22;7423;48.722;9.350;2022-11-20T06:16:09;10.10;99.90
14670;DHT22;7423;48.722;9.350;2022-11-20T06:18:37;10.10;99.90
14670;DHT22;7423;48.722;9.350;2022-11-20T06:21:10;10.10;99.90
14670;DHT22;7423;48.722;9.350;2022-11-20T06:23:39;10.10;99.90
14670;DHT22;7423;48.722;9.350;2022-11-20T06:26:08;10.00;99.90
14670;DHT22;7423;48.722;9.350;2022-11-20T06:28:36;10.00;99.90
14670;DHT22;7423;48.722;9.350;2022-11-20T06:31:04;10.00;99.90
14670;DHT22;7423;48.722;9.350;2022-11-20T06:33:32;10.00;99.90
14670;DHT22;7423;48.722;9.350;2022-11-20T06:36:00;10.10;99.90
14670;DHT22;7423;48.722;9.350;2022-11-20T06:38:36;10.10;99.90
14670;DHT22;7423;48.722;9.350;2022-11-20T06:41:04;10.10;99.90
14670;DHT22;7423;48.722;9.350;2022-11-20T06:43:31;10.10;99.90
14670;DHT22;7423;48.722;9.350;2022-11-20T06:45:59;10.20;99.90
14670;DHT22;7423;48.722;9.350;2022-11-20T06:48:27;10.20;99.90
14670;DHT22;7423;48.722;9.350;2022-11-20T06:50:54;10.20;99.90
14670;DHT22;7423;48.722;9.350;2022-11-20T06:53:22;10.20;99.90
14670;DHT22;7423;48.722;9.350;2022-11-20T06:55:50;10.20;99.90
14670;DHT22;7423;48.722;9.350;2022-11-20T06:58:17;10.10;99.90
14670;DHT22;7423;48.722;9.350;2022-11-20T07:00:44;10.10;99.90
14670;DHT22;7423;48.722;9.350;2022-11-20T07:03:12;11.30;99.90
14670;DHT22;7423;48.722;9.350;2022-11-20T07:05:39;10.10;99.90
14670;DHT22;7423;48.722;9.350;2022-11-20T07:08:07;10.10;99.90
14670;DHT22;7423;48.722;9.350;2022-11-20T07:10:34;10.00;99.90
14670;DHT22;7423;48.722;9.350;2022-11-20T07:13:01;10.00;99.90
14670;DHT22;7423;48.722;9.350;2022-11-20T07:15:28;10.00;99.90
14670;DHT22;7423;48.722;9.350;2022-11-20T07:17:58;10.10;99.90
14670;DHT22;7423;48.722;9.350;2022-11-20T07:20:25;10.10;99.90
14670;DHT22;7423;48.722;9.350;2022-11-20T07:22:56;10.10;99.90
14670;DHT22;7423;48.722;9.350;2022-11-20T07:25:24;10.10;99.90
14670;DHT22;7423;48.722;9.350;2022-11-20T07:27:52;10.10;99.90
14670;DHT22;7423;48.722;9.350;2022-11-20T07:30:19;10.20;99.90
14670;DHT22;7423;48.722;9.350;2022-11-20T07:32:47;10.20;99.90
14670;DHT22;7423;48.722;9.350;2022-11-20T07:35:16;10.20;99.90
14670;DHT22;7423;48.722;9.350;2022-11-20T07:37:43;10.20;99.90
14670;DHT22;7423;48.722;9.350;2022-11-20T07:40:12;10.20;99.90
14670;DHT22;7423;48.722;9.350;2022-11-20T07:42:47;10.20;99.90
14670;DHT22;7423;48.722;9.350;2022-11-20T07:45:16;10.20;99.90
14670;DHT22;7423;48.722;9.350;2022-11-20T07:47:43;10.30;99.90
14670;DHT22;7423;48.722;9.350;2022-11-20T07:50:11;10.30;99.90
14670;DHT22;7423;48.722;9.350;2022-11-20T07:52:38;10.30;99.90
14670;DHT22;7423;48.722;9.350;2022-11-20T07:55:05;10.30;99.90
14670;DHT22;7423;48.722;9.350;2022-11-20T07:57:33;10.30;99.90
14670;DHT22;7423;48.722;9.350;2022-11-20T08:00:00;10.40;99.90
14670;DHT22;7423;48.722;9.350;2022-11-20T08:02:26;10.30;99.90
14670;DHT22;7423;48.722;9.350;2022-11-20T08:04:53;10.40;99.90
14670;DHT22;7423;48.722;9.350;2022-11-20T08:07:20;10.40;99.90
14670;DHT22;7423;48.722;9.350;2022-11-20T08:09:47;10.40;99.90
14670;DHT22;7423;48.722;9.350;2022-11-20T08:12:20;10.40;99.90
14670;DHT22;7423;48.722;9.350;2022-11-20T08:15:06;10.40;99.90
14670;DHT22;7423;48.722;9.350;2022-11-20T08:17:39;10.40;99.90
14670;DHT22;7423;48.722;9.350;2022-11-20T08:20:06;10.40;99.90
14670;DHT22;7423;48.722;9.350;2022-11-20T08:22:34;10.40;99.90
14670;DHT22;7423;48.722;9.350;2022-11-20T08:25:01;10.40;99.90
14670;DHT22;7423;48.722;9.350;2022-11-20T08:27:28;10.40;99.90
14670;DHT22;7423;48.722;9.350;2022-11-20T08:29:55;10.40;99.90
14670;DHT22;7423;48.722;9.350;2022-11-20T08:32:22;10.40;99.90
14670;DHT22;7423;48.722;9.350;2022-11-20T08:34:49;10.50;99.90
14670;DHT22;7423;48.722;9.350;2022-11-20T08:37:16;10.50;99.90
14670;DHT22;7423;48.722;9.350;2022-11-20T08:39:42;10.50;99.90
14670;DHT22;7423;48.722;9.350;2022-11-20T08:42:09;10.50;99.90
14670;DHT22;7423;48.722;9.350;2022-11-20T08:44:36;10.50;99.90
14670;DHT22;7423;48.722;9.350;2022-11-20T08:47:03;10.40;99.90
14670;DHT22;7423;48.722;9.350;2022-11-20T08:49:30;10.40;99.90
14670;DHT22;7423;48.722;9.350;2022-11-20T08:51:57;10.40;99.90
14670;DHT22;7423;48.722;9.350;2022-11-20T08:54:23;10.50;99.90
14670;DHT22;7423;48.722;9.350;2022-11-20T08:56:50;10.50;99.90
14670;DHT22;7423;48.722;9.350;2022-11-20T08:59:17;10.50;99.90
14670;DHT22;7423;48.722;9.350;2022-11-20T09:02:04;10.50;99.90
14670;DHT22;7423;48.722;9.350;2022-11-20T09:04:31;10.50;99.90
14670;DHT22;7423;48.722;9.350;2022-11-20T09:06:59;10.50;99.90
14670;DHT22;7423;48.722;9.350;2022-11-20T09:09:26;10.50;99.90
14670;DHT22;7423;48.722;9.350;2022-11-20T09:11:53;10.50;99.90
14670;DHT22;7423;48.722;9.350;2022-11-20T09:14:20;10.50;99.90
14670;DHT22;7423;48.722;9.350;2022-11-20T09:16:47;10.50;99.90
14670;DHT22;7423;48.722;9.350;2022-11-20T09:19:14;10.60;99.90
14670;DHT22;7423;48.722;9.350;2022-11-20T09:22:01;10.70;99.90
14670;DHT22;7423;48.722;9.350;2022-11-20T09:24:28;10.60;99.90
14670;DHT22;7423;48.722;9.350;2022-11-20T09:26:55;10.60;99.90
14670;DHT22;7423;48.722;9.350;2022-11-20T09:29:22;10.60;99.90
14670;DHT22;7423;48.722;9.350;2022-11-20T09:31:49;10.50;99.90
14670;DHT22;7423;48.722;9.350;2022-11-20T09:34:16;10.50;99.90
14670;DHT22;7423;48.722;9.350;2022-11-20T09:36:43;10.60;99.90
14670;DHT22;7423;48.722;9.350;2022-11-20T09:39:10;10.50;99.90
14670;DHT22;7423;48.722;9.350;2022-11-20T09:44:38;10.60;99.90
14670;DHT22;7423;48.722;9.350;2022-11-20T09:56:03;10.30;99.90
14670;DHT22;7423;48.722;9.350;2022-11-20T09:58:47;10.50;99.90
14670;DHT22;7423;48.722;9.350;2022-11-20T10:01:18;10.50;99.90
14670;DHT22;7423;48.722;9.350;2022-11-20T10:04:15;10.50;99.90
14670;DHT22;7423;48.722;9.350;2022-11-20T10:10:03;10.50;99.90
14670;DHT22;7423;48.722;9.350;2022-11-20T10:21:09;10.60;99.90
14670;DHT22;7423;48.722;9.350;2022-11-20T10:24:10;10.60;99.90
14670;DHT22;7423;48.722;9.350;2022-11-20T10:30:09;10.70;99.90
14670;DHT22;7423;48.722;9.350;2022-11-20T10:32:40;10.70;99.90
14670;DHT22;7423;48.722;9.350;2022-11-20T10:35:25;10.70;99.90
14670;DHT22;7423;48.722;9.350;2022-11-20T10:37:59;10.80;99.90
14670;DHT22;7423;48.722;9.350;2022-11-20T10:40:51;10.80;99.90
14670;DHT22;7423;48.722;9.350;2022-11-20T10:43:32;10.80;99.90
14670;DHT22;7423;48.722;9.350;2022-11-20T10:46:10;10.70;99.90
14670;DHT22;7423;48.722;9.350;2022-11-20T10:48:43;10.80;99.90
14670;DHT22;7423;48.722;9.350;2022-11-20T10:54:17;10.90;99.90
14670;DHT22;7423;48.722;9.350;2022-11-20T10:56:54;11.00;99.90
14670;DHT22;7423;48.722;9.350;2022-11-20T10:59:52;11.10;99.90
14670;DHT22;7423;48.722;9.350;2022-11-20T11:02:39;11.20;99.90
14670;DHT22;7423;48.722;9.350;2022-11-20T11:08:12;11.30;99.90
14670;DHT22;7423;48.722;9.350;2022-11-20T11:10:51;11.20;99.90
14670;DHT22;7423;48.722;9.350;2022-11-20T11:13:30;11.20;99.90
14670;DHT22;7423;48.722;9.350;2022-11-20T11:15:57;11.10;99.90
14670;DHT22;7423;48.722;9.350;2022-11-20T11:18:32;11.10;99.90
14670;DHT22;7423;48.722;9.350;2022-11-20T11:21:03;11.10;99.90
14670;DHT22;7423;48.722;9.350;2022-11-20T11:23:41;11.20;99.90
14670;DHT22;7423;48.722;9.350;2022-11-20T11:26:21;11.10;99.90
14670;DHT22;7423;48.722;9.350;2022-11-20T11:28:59;11.10;99.90
14670;DHT22;7423;48.722;9.350;2022-11-20T11:31:34;11.10;99.90
14670;DHT22;7423;48.722;9.350;2022-11-20T11:34:22;11.10;99.90
14670;DHT22;7423;48.722;9.350;2022-11-20T11:36:57;11.00;99.90
14670;DHT22;7423;48.722;9.350;2022-11-20T11:39:27;11.00;99.90
14670;DHT22;7423;48.722;9.350;2022-11-20T11:41:55;11.10;99.90
14670;DHT22;7423;48.722;9.350;2022-11-20T11:44:34;11.10;99.90
14670;DHT22;7423;48.722;9.350;2022-11-20T11:50:00;11.20;99.90
14670;DHT22;7423;48.722;9.350;2022-11-20T11:58:47;11.20;99.90
14670;DHT22;7423;48.722;9.350;2022-11-20T12:01:29;11.20;99.90
14670;DHT22;7423;48.722;9.350;2022-11-20T12:07:11;11.30;99.90
14670;DHT22;7423;48.722;9.350;2022-11-20T12:10:03;11.30;99.90
14670;DHT22;7423;48.722;9.350;2022-11-20T12:12:36;11.10;99.90
14670;DHT22;7423;48.722;9.350;2022-11-20T12:15:11;11.40;99.90
14670;DHT22;7423;48.722;9.350;2022-11-20T12:17:40;11.60;99.90
14670;DHT22;7423;48.722;9.350;2022-11-20T12:20:16;11.60;99.90
14670;DHT22;7423;48.722;9.350;2022-11-20T12:22:51;11.50;99.90
14670;DHT22;7423;48.722;9.350;2022-11-20T12:25:32;11.60;99.90
14670;DHT22;7423;48.722;9.350;2022-11-20T12:31:51;11.60;99.90
14670;DHT22;7423;48.722;9.350;2022-11-20T12:43:19;11.60;99.90
14670;DHT22;7423;48.722;9.350;2022-11-20T12:46:24;11.70;99.90
14670;DHT22;7423;48.722;9.350;2022-11-20T12:52:15;11.70;99.90
14670;DHT22;7423;48.722;9.350;2022-11-20T12:55:13;11.70;99.90
14670;DHT22;7423;48.722;9.350;2022-11-20T12:58:15;11.90;99.90
14670;DHT22;7423;48.722;9.350;2022-11-20T13:01:13;11.90;99.90
14670;DHT22;7423;48.722;9.350;2022-11-20T13:06:56;11.90;99.90
14670;DHT22;7423;48.722;9.350;2022-11-20T13:09:24;11.90;99.90
14670;DHT22;7423;48.722;9.350;2022-11-20T13:12:11;12.00;99.90
14670;DHT22;7423;48.722;9.350;2022-11-20T13:15:08;12.00;99.90
14670;DHT22;7423;48.722;9.350;2022-11-20T13:18:00;12.00;99.90
14670;DHT22;7423;48.722;9.350;2022-11-20T13:20:29;12.00;99.90
14670;DHT22;7423;48.722;9.350;2022-11-20T13:22:57;11.90;99.90
14670;DHT22;7423;48.722;9.350;2022-11-20T13:25:33;11.80;99.90
14670;DHT22;7423;48.722;9.350;2022-11-20T13:30:52;11.80;99.90
14670;DHT22;7423;48.722;9.350;2022-11-20T13:33:35;11.80;99.90
14670;DHT22;7423;48.722;9.350;2022-11-20T13:36:04;11.80;99.90
14670;DHT22;7423;48.722;9.350;2022-11-20T13:38:47;12.00;99.90
14670;DHT22;7423;48.722;9.350;2022-11-20T13:41:36;12.00;99.90
14670;DHT22;7423;48.722;9.350;2022-11-20T13:46:44;12.00;99.90
14670;DHT22;7423;48.722;9.350;2022-11-20T13:49:26;12.00;99.90
14670;DHT22;7423;48.722;9.350;2022-11-20T13:52:28;11.90;99.90
14670;DHT22;7423;48.722;9.350;2022-11-20T13:55:38;11.90;99.90
14670;DHT22;7423;48.722;9.350;2022-11-20T14:01:20;12.10;99.90
14670;DHT22;7423;48.722;9.350;2022-11-20T14:03:51;12.10;99.90
14670;DHT22;7423;48.722;9.350;2022-11-20T14:06:45;12.20;99.90
14670;DHT22;7423;48.722;9.350;2022-11-20T14:09:28;12.20;99.90
14670;DHT22;7423;48.722;9.350;2022-11-20T14:11:56;12.10;99.90
14670;DHT22;7423;48.722;9.350;2022-11-20T14:14:28;12.20;99.90
14670;DHT22;7423;48.722;9.350;2022-11-20T14:20:04;12.30;99.90
14670;DHT22;7423;48.722;9.350;2022-11-20T14:22:31;12.30;99.90
14670;DHT22;7423;48.722;9.350;2022-11-20T14:25:06;12.40;99.90
14670;DHT22;7423;48.722;9.350;2022-11-20T14:27:57;12.50;99.90
14670;DHT22;7423;48.722;9.350;2022-11-20T14:30:46;12.40;99.90
14670;DHT22;7423;48.722;9.350;2022-11-20T14:33:14;12.30;99.90
14670;DHT22;7423;48.722;9.350;2022-11-20T14:35:50;12.20;99.90
14670;DHT22;7423;48.722;9.350;2022-11-20T14:38:22;12.10;99.90
14670;DHT22;7423;48.722;9.350;2022-11-20T14:40:52;12.10;99.90
14670;DHT22;7423;48.722;9.350;2022-11-20T14:43:28;12.20;99.90
14670;DHT22;7423;48.722;9.350;2022-11-20T14:46:02;12.20;99.90
14670;DHT22;7423;48.722;9.350;2022-11-20T14:48:39;12.20;99.90
14670;DHT22;7423;48.722;9.350;2022-11-20T14:51:11;12.20;99.90
14670;DHT22;7423;48.722;9.350;2022-11-20T14:53:49;12.20;99.90
14670;DHT22;7423;48.722;9.350;2022-11-20T14:56:24;12.30;99.90
14670;DHT22;7423;48.722;9.350;2022-11-20T14:58:58;12.20;99.90
14670;DHT22;7423;48.722;9.350;2022-11-20T15:01:29;12.10;99.90
14670;DHT22;7423;48.722;9.350;2022-11-20T15:04:10;12.00;99.90
14670;DHT22;7423;48.722;9.350;2022-11-20T15:06:38;11.90;99.90
14670;DHT22;7423;48.722;9.350;2022-11-20T15:09:16;11.80;99.90
14670;DHT22;7423;48.722;9.350;2022-11-20T15:11:54;11.70;99.90
14670;DHT22;7423;48.722;9.350;2022-11-20T15:14:23;11.70;99.90
14670;DHT22;7423;48.722;9.350;2022-11-20T15:16:52;11.60;99.90
14670;DHT22;7423;48.722;9.350;2022-11-20T15:19:21;11.60;99.90
14670;DHT22;7423;48.722;9.350;2022-11-20T15:21:50;11.60;99.90
14670;DHT22;7423;48.722;9.350;2022-11-20T15:24:18;11.60;99.90
14670;DHT22;7423;48.722;9.350;2022-11-20T15:26:45;11.50;99.90
14670;DHT22;7423;48.722;9.350;2022-11-20T15:29:14;11.50;99.90
14670;DHT22;7423;48.722;9.350;2022-11-20T15:31:45;11.50;99.90
14670;DHT22;7423;48.722;9.350;2022-11-20T15:34:14;11.40;99.90
14670;DHT22;7423;48.722;9.350;2022-11-20T15:36:42;11.40;99.90
14670;DHT22;7423;48.722;9.350;2022-11-20T15:39:09;11.40;99.90
14670;DHT22;7423;48.722;9.350;2022-11-20T15:41:38;11.40;99.90
14670;DHT22;7423;48.722;9.350;2022-11-20T15:44:05;11.40;99.90
14670;DHT22;7423;48.722;9.350;2022-11-20T15:46:35;11.40;99.90
14670;DHT22;7423;48.722;9.350;2022-11-20T15:49:06;11.40;99.90
14670;DHT22;7423;48.722;9.350;2022-11-20T15:51:39;11.40;99.90
14670;DHT22;7423;48.722;9.350;2022-11-20T15:54:13;11.50;99.90
14670;DHT22;7423;48.722;9.350;2022-11-20T15:56:42;11.50;99.90
14670;DHT22;7423;48.722;9.350;2022-11-20T15:59:08;11.40;99.90
14670;DHT22;7423;48.722;9.350;2022-11-20T16:01:35;11.40;99.90
14670;DHT22;7423;48.722;9.350;2022-11-20T16:04:05;11.30;99.90
14670;DHT22;7423;48.722;9.350;2022-11-20T16:06:34;11.20;99.90
14670;DHT22;7423;48.722;9.350;2022-11-20T16:09:01;11.30;99.90
14670;DHT22;7423;48.722;9.350;2022-11-20T16:11:28;11.20;99.90
14670;DHT22;7423;48.722;9.350;2022-11-20T16:13:55;11.20;99.90
14670;DHT22;7423;48.722;9.350;2022-11-20T16:16:40;11.20;99.90
14670;DHT22;7423;48.722;9.350;2022-11-20T16:19:12;11.10;99.90
14670;DHT22;7423;48.722;9.350;2022-11-20T16:21:40;11.10;99.90
14670;DHT22;7423;48.722;9.350;2022-11-20T16:24:11;11.10;99.90
14670;DHT22;7423;48.722;9.350;2022-11-20T16:26:39;11.00;99.90
14670;DHT22;7423;48.722;9.350;2022-11-20T16:29:07;11.00;99.90
14670;DHT22;7423;48.722;9.350;2022-11-20T16:31:34;11.00;99.90
14670;DHT22;7423;48.722;9.350;2022-11-20T16:34:06;10.90;99.90
14670;DHT22;7423;48.722;9.350;2022-11-20T16:36:48;10.90;99.90
14670;DHT22;7423;48.722;9.350;2022-11-20T16:39:15;11.40;99.90
14670;DHT22;7423;48.722;9.350;2022-11-20T16:41:48;10.90;99.90
14670;DHT22;7423;48.722;9.350;2022-11-20T16:44:15;10.80;99.90
14670;DHT22;7423;48.722;9.350;2022-11-20T16:46:42;10.80;99.90
14670;DHT22;7423;48.722;9.350;2022-11-20T16:49:13;10.80;99.90
14670;DHT22;7423;48.722;9.350;2022-11-20T16:51:40;10.80;99.90
14670;DHT22;7423;48.722;9.350;2022-11-20T16:54:08;10.80;99.90
14670;DHT22;7423;48.722;9.350;2022-11-20T16:56:36;10.80;99.90
14670;DHT22;7423;48.722;9.350;2022-11-20T16:59:03;10.70;99.90
14670;DHT22;7423;48.722;9.350;2022-11-20T17:01:30;10.70;99.90
14670;DHT22;7423;48.722;9.350;2022-11-20T17:04:03;10.70;99.90
14670;DHT22;7423;48.722;9.350;2022-11-20T17:06:33;10.70;99.90
14670;DHT22;7423;48.722;9.350;2022-11-20T17:09:01;10.70;99.90
14670;DHT22;7423;48.722;9.350;2022-11-20T17:11:29;10.60;99.90
14670;DHT22;7423;48.722;9.350;2022-11-20T17:13:57;10.60;99.90
14670;DHT22;7423;48.722;9.350;2022-11-20T17:16:30;10.60;99.90
14670;DHT22;7423;48.722;9.350;2022-11-20T17:18:58;10.60;99.90
14670;DHT22;7423;48.722;9.350;2022-11-20T17:21:30;10.60;99.90
14670;DHT22;7423;48.722;9.350;2022-11-20T17:24:03;10.60;99.90
14670;DHT22;7423;48.722;9.350;2022-11-20T17:26:31;10.60;99.90
14670;DHT22;7423;48.722;9.350;2022-11-20T17:29:06;10.60;99.90
14670;DHT22;7423;48.722;9.350;2022-11-20T17:31:36;10.60;99.90
14670;DHT22;7423;48.722;9.350;2022-11-20T17:34:07;10.60;99.90